LNSLANCASTER
METARs for airports near LNS, sorted by distance:
N 0 nm 402' KLNS 142253Z 17007KT 10SM CLR 31/22 A2996
SE 21 nm 660' KMQS 142335Z 00000KT 10SM CLR 27/27 A2999
NE 21 nm 343' KRDG 142254Z 15004KT 10SM CLR 31/22 A2995
W 21 nm 310' KMDT 142256Z 14009KT 10SM SCT095 32/22 A2993
NW 22 nm 487' KMUI 142255Z 10004KT 10SM CLR 31/21 A2995
W 26 nm 346' KCXY 142256Z 12011KT 10SM SCT095 33/21 A2994
SW 29 nm 494' KTHV 142253Z VRB04KT 10SM CLR 33/21 A2995
E 33 nm 464' KOQN 142335Z 15003KT 10SM CLR 27/23 A2998
E 34 nm 308' KPTW 122254Z 00000KT 9SM -RA FEW035 BKN090 OVC120 26/22 A3018
N 35 nm 1729' KZER 142335Z 12006KT 7SM -RA SCT085 26/21 A3004
S 39 nm 44' KAPG 122034Z VRB05KT 7SM -RA SCT030 OVC050 26/22 A3014
SE 41 nm 79' KILG 142251Z 10006KT 10SM CLR 29/23 A2996
SW 45 nm 789' KDMW 142320Z 18003KT 10SM CLR 36/18 A2997
NE 45 nm 399' KXLL 142335Z 20006KT 10SM CLR 28/22 A2997
NE 45 nm 525' KUKT 142335Z 00000KT 10SM CLR 28/23 A2998
E 47 nm 301' KLOM 142335Z 16004KT 10SM SCT095 28/23 A2996
S 48 nm 21' KMTN 142255Z 15005KT 10SM CLR 30/23 A2996
E 48 nm 567' KCKZ 142335Z 00000KT 10SM CLR 27/23 A2998
NW 49 nm 463' KSEG 142253Z 00000KT 10SM CLR 32/18 A2994
NE 50 nm 393' KABE 142251Z 24007KT 10SM CLR 29/21 A2996
E 50 nm 35' KPHL 142254Z 00000KT 10SM FEW030 SCT250 29/23 A2996
N 53 nm 1603' KHZL 142335Z 00000KT CLR 25/21 A3005
E 55 nm 393' KDYL 142254Z 24003KT 10SM CLR 29/21 A2997
E 59 nm 119' KPNE 142254Z 29005KT 10SM CLR 29/21 A2997
S 59 nm 143' KBWI 142254Z 16007KT 10SM FEW065 FEW250 32/22 A2994
SW 65 nm 308' KFDK 142247Z 18005KT 10SM CLR 36/17 A2994
S 65 nm 150' KFME 142329Z 14005KT 10SM CLR 30/23 A2997
E 67 nm 52' KVAY 142254Z VRB04KT 10SM CLR 27/23 A2996
E 68 nm 212' KTTN 142253Z 32003KT 10SM CLR 28/21 A2995
NW 69 nm 818' KRVL 142335Z 00000KT 10SM FEW080 29/20 A2996
SW 70 nm 538' KGAI 142256Z 20006KT 10SM CLR A2997
W 70 nm 703' KHGR 142253Z 16005KT 10SM CLR 35/18 A2995
SE 70 nm 28' KDOV 142255Z 19009KT 10SM CLR 31/21 A2994
SE 72 nm 84' KMIV 142254Z VRB06KT 10SM CLR 28/21 A2997
NW 73 nm 528' KIPT 142254Z 20005KT 10SM CLR 33/16 A2993
NE 73 nm 1915' KMPO 142253Z 23009KT 10SM 28/16 A3004
SW 74 nm 48' KCGS 142325Z 12007KT 090V150 10SM CLR 33/23 A2995
N 77 nm 961' KAVP 142254Z 23008KT 9SM CLR 32/18 A2997
E 78 nm 140' KWRI 142330Z 15004KT 10SM BKN043 29/21 A2995
S 79 nm 72' KESN 142345Z 18006KT 10SM CLR 30/23 A2996
NE 80 nm 106' KSMQ 142253Z 17004KT 9SM CLR 28/24 A2994
S 83 nm 279' KADW 142255Z 13007KT 10SM CLR 32/23 A2993
NW 83 nm 1231' KUNV 142253Z 30005KT 10SM BKN070 31/16 A2999
SW 83 nm 14' KDCA 142252Z 21009KT 10SM FEW080 FEW250 36/16 A2993
SW 85 nm 389' KJYO 142335Z 22004KT 10SM CLR 34/21 A2996
SE 88 nm 74' KACY 142254Z 28/21 A2996
SW 88 nm 312' KIAD 142252Z 20008KT 10SM FEW090 FEW250 34/18 A2994
SW 89 nm 564' KMRB 142253Z 28008KT 10SM SCT110 35/13 A2993
E 89 nm 100' KNEL 142300Z 17003KT CLR 28/24 A2995
E 92 nm 86' KMJX 142256Z 17003KT 10SM CLR 29/24 A2997
TAFs for airports near LNS, sorted by distance:
N 0 nm 402' KLNS KLNS 142127Z 1421/1518 16006KT P6SM SCT070
  FM150200 15003KT 6SM BR SCT120
  FM150800 VRB03KT 4SM BR BKN250
  FM151300 28007KT P6SM SCT250
NE 21 nm 343' KRDG TAF KRDG 141720Z 1418/1518 24005KT P6SM SCT040
  TEMPO 1418/1419 3SM TSRA BKN030CB
  FM142300 VRB03KT P6SM FEW100
  FM151500 26007KT P6SM FEW070
W 21 nm 310' KMDT KMDT 142127Z 1421/1518 27005KT P6SM SCT040
  FM150000 15003KT 6SM BR SCT120
  FM150800 VRB03KT 4SM BR BKN250
  FM151300 28007KT P6SM SCT250
NW 22 nm 487' KMUI TAF KMUI 121900Z 1219/1401 VRB06KT 8000 -SHRA SCT050 BKN070 QNH3014INS
  BECMG 1301/1302 VRB06KT 8000 -SHRA BKN025 QNH3017INS
  BECMG 1303/1304 VRB06KT 4800 -SHRA BKN010 OVC050 QNH3014INS
  TEMPO 1304/1306 22015G25KT 3200 -TSRA BKN006CB OVC050
  BECMG 1306/1307 VRB06KT 8000 BR OVC006 QNH3016INS
  BECMG 1313/1314 VRB06KT 8000 BR OVC050 QNH3009INS TX26/1219Z TN20/1311Z
SE 41 nm 79' KILG TAF KILG 141720Z 1418/1518 16008KT P6SM SCT040
  TEMPO 1418/1421 VRB20G30KT 3SM TSRA BKN040CB
  FM150100 18005KT P6SM FEW100
  FM151500 24006KT P6SM FEW060
S 48 nm 21' KMTN KMTN 142001Z 1420/1518 15012G20KT P6SM FEW250
  FM150000 20005KT P6SM FEW250
  FM150400 17005KT P6SM FEW250
  FM151600 21005KT P6SM FEW200
NE 50 nm 393' KABE TAF KABE 141720Z 1418/1518 VRB05KT P6SM SCT060
  FM142300 VRB02KT P6SM FEW100
  FM151500 26007KT P6SM FEW070
E 50 nm 35' KPHL TAF
  AMD KPHL 142052Z 1421/1524 VRB20G30KT 6SM -TSRA BKN050CB
  FM142115 19010KT P6SM SCT060
  FM150200 20007KT P6SM FEW100
  FM151400 26008KT P6SM FEW070
E 59 nm 119' KPNE KPNE 142059Z 1421/1518 VRB12G20KT P6SM VCTS BKN050CB
  FM142115 14008KT P6SM SCT060
  FM150100 VRB03KT P6SM FEW100
  FM151500 24005KT P6SM SCT060
S 59 nm 143' KBWI TAF
  AMD KBWI 142102Z 1421/1524 18009G15KT P6SM VCTS SCT060CB SCT250
  FM142300 20004KT P6SM FEW200
  FM150500 17004KT P6SM FEW250
  FM151600 25005KT P6SM FEW200
E 68 nm 212' KTTN TAF KTTN 141720Z 1418/1518 24006KT P6SM SCT050
  TEMPO 1418/1421 VRB20G30KT 3SM -TSRA BKN050CB
  FM150100 VRB03KT P6SM FEW100
  FM151500 24005KT P6SM SCT060
SE 70 nm 28' KDOV TAF KDOV 141600Z 1416/1522 18006KT 9999 SCT095 QNH3005INS
  BECMG 1417/1418 22006KT 9999 BKN100 QNH2997INS
  TEMPO 1418/1422 9000 -SHRA
  BECMG 1502/1503 23009KT 9999 SCT080 QNH2993INS TX33/1420Z TN24/1510Z
SE 72 nm 84' KMIV TAF KMIV 141720Z 1418/1518 20008KT P6SM SCT040
  FM142300 VRB02KT P6SM SCT100
  FM151500 24006KT P6SM FEW050
NW 73 nm 528' KIPT KIPT 142127Z 1421/1518 25007KT P6SM FEW080
  FM150200 00000KT P6SM BKN100
  FM151400 25007KT P6SM SCT050 BKN250
N 77 nm 961' KAVP KAVP 141728Z 1418/1518 26008KT P6SM SCT060
  FM150200 13003KT P6SM SCT060
E 78 nm 140' KWRI TAF
  AMD KWRI 142238Z 1422/1524 22012G18KT 9999 FEW040 SCT200 QNH2994INS
  BECMG 1501/1502 20008KT 9999 NSW SCT035 QNH2990INS
  BECMG 1513/1514 24010G18KT 9999 FEW040 QNH2990INS TX30/1422Z TN23/1510Z
S 83 nm 279' KADW TAF
  AMD KADW 141910Z 1419/1523 27012KT 9999 VCTS SCT050CB QNH2997INS
  TEMPO 1419/1421 29012G18KT 8000 -TSRA BKN050CB
  BECMG 1420/1421 22006KT 9999 NSW SCT050 QNH2994INS
  BECMG 1500/1501 17006KT 9999 FEW070 QNH2992INS
  BECMG 1506/1507 26006KT 9999 SCT060 SCT250 QNH2986INS
  BECMG 1518/1519 23012KT 9999 -SHRA VCTS BKN040CB QNH2983INS TX38/1419Z TN23/1509Z
NW 83 nm 1231' KUNV KUNV 142127Z 1421/1518 28006KT P6SM SCT080
  FM150300 00000KT P6SM BKN090
  FM151400 25008KT P6SM SCT050 BKN250
SW 83 nm 14' KDCA KDCA 142102Z 1421/1524 21008G16KT P6SM VCTS SCT060CB SCT250
  FM142200 08008G16KT P6SM FEW200
  FM150500 17005KT P6SM FEW200
  FM151600 26005KT P6SM FEW200
SE 88 nm 74' KACY TAF KACY 141720Z 1418/1518 16010KT P6SM SCT050
  FM150100 19006KT P6SM FEW010 SCT100
  FM150900 VRB03KT 5SM BR FEW100
  FM151500 22006KT P6SM FEW050
SW 88 nm 312' KIAD KIAD 142102Z 1421/1524 23009KT P6SM FEW250
  FM142300 21005KT P6SM FEW250
  FM150300 18004KT P6SM FEW250
  FM151600 26005KT P6SM FEW250
SW 89 nm 564' KMRB KMRB 141727Z 1418/1518 25006KT P6SM FEW250
  FM142300 21005KT P6SM FEW250
  FM150300 17004KT P6SM FEW250
  FM151000 23005KT P6SM FEW200
  FM151400 28004KT P6SM FEW200

Shortcut to this page: http://wxbay.com.

Data may contain errors.